createdAt,value
2017-01-25T00:00:33.711Z,0
2017-01-25T00:01:42.671Z,0
2017-01-25T00:02:51.632Z,0
2017-01-25T00:04:00.582Z,0
2017-01-25T00:05:09.535Z,0
2017-01-25T00:06:18.499Z,0
2017-01-25T00:07:27.458Z,0
2017-01-25T00:08:38.292Z,0
2017-01-25T00:09:49.486Z,0
2017-01-25T00:11:00.529Z,0
2017-01-25T00:12:10.629Z,0
2017-01-25T00:13:19.610Z,0
2017-01-25T00:14:31.832Z,0
2017-01-25T00:15:42.918Z,0
2017-01-25T00:16:53.680Z,0
2017-01-25T00:18:05.940Z,0
2017-01-25T00:19:17.795Z,0
2017-01-25T00:20:29.971Z,0
2017-01-25T00:21:42.356Z,0
2017-01-25T00:22:54.936Z,0
2017-01-25T00:24:06.157Z,0
2017-01-25T00:25:18.298Z,0
2017-01-25T00:26:28.199Z,0
2017-01-25T00:27:39.330Z,0
2017-01-25T00:28:51.576Z,0
2017-01-25T00:30:00.849Z,0
2017-01-25T00:31:09.809Z,0
2017-01-25T00:32:19.526Z,0
2017-01-25T00:33:30.746Z,0
2017-01-25T00:34:41.417Z,0
2017-01-25T00:35:51.422Z,0
2017-01-25T00:37:02.753Z,0
2017-01-25T00:38:12.581Z,0
2017-01-25T00:39:24.095Z,0
2017-01-25T00:40:36.223Z,0
2017-01-25T00:41:45.260Z,0
2017-01-25T00:42:54.210Z,0
2017-01-25T00:44:03.171Z,0
2017-01-25T00:45:12.125Z,0
2017-01-25T00:46:21.101Z,0
2017-01-25T00:47:30.055Z,0
2017-01-25T00:48:39.109Z,0
2017-01-25T00:49:48.098Z,0
2017-01-25T00:50:57.051Z,0
2017-01-25T00:52:06.009Z,0
2017-01-25T00:53:14.960Z,0
2017-01-25T00:54:23.914Z,0
2017-01-25T00:55:32.870Z,0
2017-01-25T00:56:41.948Z,0
2017-01-25T00:57:50.911Z,0
2017-01-25T00:58:59.863Z,0
2017-01-25T01:00:08.822Z,0
2017-01-25T01:01:17.776Z,0
2017-01-25T01:02:26.726Z,0
2017-01-25T01:03:35.684Z,0
2017-01-25T01:04:44.636Z,0
2017-01-25T01:05:53.679Z,0
2017-01-25T01:07:02.632Z,0
2017-01-25T01:08:11.592Z,0
2017-01-25T01:09:20.568Z,0
2017-01-25T01:10:29.521Z,0
2017-01-25T01:11:38.481Z,0
2017-01-25T01:12:47.446Z,0
2017-01-25T01:13:56.490Z,0
2017-01-25T01:15:05.444Z,0
2017-01-25T01:16:14.399Z,0
2017-01-25T01:17:23.352Z,0
2017-01-25T01:18:32.304Z,0
2017-01-25T01:19:41.255Z,0
2017-01-25T01:20:50.215Z,0
2017-01-25T01:21:59.170Z,0
2017-01-25T01:23:08.130Z,0
2017-01-25T01:24:17.086Z,0
2017-01-25T01:25:26.040Z,0
2017-01-25T01:26:34.997Z,0
2017-01-25T01:27:43.954Z,0
2017-01-25T01:28:52.908Z,0
2017-01-25T01:30:01.871Z,0
2017-01-25T01:31:10.828Z,0
2017-01-25T01:32:19.786Z,0
2017-01-25T01:33:28.741Z,0
2017-01-25T01:34:37.695Z,0
2017-01-25T01:35:46.652Z,0
2017-01-25T01:36:55.605Z,0
2017-01-25T01:38:04.561Z,0
2017-01-25T01:39:13.519Z,0
2017-01-25T01:40:22.471Z,0
2017-01-25T01:41:31.425Z,0
2017-01-25T01:42:40.379Z,0
2017-01-25T01:43:49.335Z,0
2017-01-25T01:44:58.286Z,0
2017-01-25T01:46:07.276Z,0
2017-01-25T01:47:16.231Z,0
2017-01-25T01:48:25.190Z,0
2017-01-25T01:49:34.139Z,0
2017-01-25T01:50:43.111Z,0
2017-01-25T01:51:52.064Z,0
2017-01-25T01:53:01.020Z,0
2017-01-25T01:54:09.976Z,0
2017-01-25T01:55:19.017Z,0
2017-01-25T01:56:27.969Z,0
2017-01-25T01:57:36.920Z,0
2017-01-25T01:58:45.874Z,0
2017-01-25T01:59:54.828Z,0
2017-01-25T02:01:03.782Z,0
2017-01-25T02:02:12.737Z,0
2017-01-25T02:03:21.692Z,0
2017-01-25T02:04:30.733Z,0
2017-01-25T02:05:39.687Z,0
2017-01-25T02:06:48.650Z,0
2017-01-25T02:07:57.604Z,0
2017-01-25T02:09:06.560Z,0
2017-01-25T02:10:15.516Z,0
2017-01-25T02:11:24.474Z,0
2017-01-25T02:12:33.517Z,0
2017-01-25T02:13:42.470Z,0
2017-01-25T02:14:51.421Z,0
2017-01-25T02:16:00.464Z,0
2017-01-25T02:17:09.423Z,0
2017-01-25T02:18:18.380Z,0
2017-01-25T02:19:27.338Z,0
2017-01-25T02:20:36.291Z,0
2017-01-25T02:21:45.250Z,0
2017-01-25T02:22:54.203Z,0
2017-01-25T02:24:03.152Z,0
2017-01-25T02:25:12.104Z,0
2017-01-25T02:26:21.055Z,0
2017-01-25T02:27:30.009Z,0
2017-01-25T02:28:38.962Z,0
2017-01-25T02:29:47.913Z,0
2017-01-25T02:30:56.872Z,0
2017-01-25T02:32:05.830Z,0
2017-01-25T02:33:14.824Z,0
2017-01-25T02:34:23.868Z,0
2017-01-25T02:35:32.908Z,0
2017-01-25T02:36:41.865Z,0
2017-01-25T02:37:50.823Z,0
2017-01-25T02:38:59.779Z,0
2017-01-25T02:40:08.735Z,0
2017-01-25T02:41:17.692Z,0
2017-01-25T02:42:26.728Z,0
2017-01-25T02:43:35.686Z,0
2017-01-25T02:44:44.651Z,0
2017-01-25T02:45:53.613Z,0
2017-01-25T02:47:02.569Z,0
2017-01-25T02:48:11.524Z,0
2017-01-25T02:49:20.473Z,0
2017-01-25T02:50:29.428Z,0
2017-01-25T02:51:38.380Z,0
2017-01-25T02:52:47.335Z,0
2017-01-25T02:53:56.289Z,0
2017-01-25T02:55:05.247Z,0
2017-01-25T02:56:14.616Z,0
2017-01-25T02:57:23.571Z,0
2017-01-25T02:58:32.535Z,0
2017-01-25T02:59:41.489Z,0
2017-01-25T03:00:50.442Z,0
2017-01-25T03:01:59.392Z,0
2017-01-25T03:03:08.382Z,0
2017-01-25T03:04:17.337Z,0
2017-01-25T03:05:26.285Z,0
2017-01-25T03:06:35.264Z,0
2017-01-25T03:07:44.250Z,0
2017-01-25T03:08:53.205Z,0
2017-01-25T03:10:02.158Z,0
2017-01-25T03:11:11.112Z,0
2017-01-25T03:12:20.071Z,0
2017-01-25T03:13:29.024Z,0
2017-01-25T03:14:37.979Z,0
2017-01-25T03:15:46.934Z,0
2017-01-25T03:16:55.977Z,0
2017-01-25T03:18:04.964Z,0
2017-01-25T03:19:13.923Z,0
2017-01-25T03:20:22.875Z,0
2017-01-25T03:21:31.825Z,0
2017-01-25T03:22:40.779Z,0
2017-01-25T03:23:49.820Z,0
2017-01-25T03:24:58.776Z,0
2017-01-25T03:26:07.731Z,0
2017-01-25T03:27:16.688Z,0
2017-01-25T03:28:25.669Z,0
2017-01-25T03:29:34.623Z,0
2017-01-25T03:30:43.573Z,0
2017-01-25T03:31:52.530Z,0
2017-01-25T03:33:01.523Z,0
2017-01-25T03:34:10.893Z,0
2017-01-25T03:35:19.843Z,0
2017-01-25T03:36:28.798Z,0
2017-01-25T03:37:37.840Z,0
2017-01-25T03:38:46.790Z,0
2017-01-25T03:39:55.743Z,0
2017-01-25T03:41:04.699Z,0
2017-01-25T03:42:13.655Z,0
2017-01-25T03:43:22.608Z,0
2017-01-25T03:44:31.682Z,0
2017-01-25T03:45:40.642Z,0
2017-01-25T03:46:49.597Z,0
2017-01-25T03:47:58.547Z,0
2017-01-25T03:49:07.524Z,0
2017-01-25T03:50:16.475Z,0
2017-01-25T03:51:25.446Z,0
2017-01-25T03:52:34.395Z,0
2017-01-25T03:53:43.353Z,0
2017-01-25T03:54:52.304Z,0
2017-01-25T03:56:01.254Z,0
2017-01-25T03:57:10.206Z,0
2017-01-25T03:58:19.164Z,0
2017-01-25T03:59:28.122Z,0
2017-01-25T04:00:37.076Z,0
2017-01-25T04:01:46.043Z,0
2017-01-25T04:02:55.000Z,0
2017-01-25T04:04:03.965Z,0
2017-01-25T04:05:12.923Z,0
2017-01-25T04:06:21.922Z,0
2017-01-25T04:07:30.876Z,0
2017-01-25T04:08:40.267Z,0
2017-01-25T04:09:49.220Z,0
2017-01-25T04:10:58.272Z,0
2017-01-25T04:12:07.632Z,0
2017-01-25T04:13:16.691Z,0
2017-01-25T04:14:25.646Z,0
2017-01-25T04:15:34.599Z,0
2017-01-25T04:16:43.556Z,0
2017-01-25T04:17:52.512Z,0
2017-01-25T04:19:01.465Z,0
2017-01-25T04:20:10.423Z,0
2017-01-25T04:21:19.376Z,0
2017-01-25T04:22:28.328Z,0
2017-01-25T04:23:37.289Z,0
2017-01-25T04:24:46.238Z,0
2017-01-25T04:25:55.192Z,0
2017-01-25T04:27:04.153Z,0
2017-01-25T04:28:13.115Z,0
2017-01-25T04:29:22.075Z,0
2017-01-25T04:30:31.027Z,0
2017-01-25T04:31:39.986Z,0
2017-01-25T04:32:48.934Z,0
2017-01-25T04:33:57.881Z,0
2017-01-25T04:35:06.838Z,0
2017-01-25T04:36:15.792Z,0
2017-01-25T04:37:24.746Z,0
2017-01-25T04:38:33.704Z,0
2017-01-25T04:39:42.651Z,0
2017-01-25T04:40:51.607Z,0
2017-01-25T04:42:00.560Z,0
2017-01-25T04:43:09.550Z,0
2017-01-25T04:44:18.536Z,0
2017-01-25T04:45:27.498Z,0
2017-01-25T04:46:36.448Z,0
2017-01-25T04:47:45.400Z,0
2017-01-25T04:48:54.351Z,0
2017-01-25T04:50:03.305Z,0
2017-01-25T04:51:12.264Z,0
2017-01-25T04:52:21.249Z,0
2017-01-25T04:53:30.288Z,0
2017-01-25T04:54:39.326Z,0
2017-01-25T04:55:48.282Z,0
2017-01-25T04:56:57.239Z,0
2017-01-25T04:58:06.286Z,0
2017-01-25T04:59:15.836Z,0
2017-01-25T05:00:25.207Z,0
2017-01-25T05:01:34.162Z,0
2017-01-25T05:02:43.123Z,0
2017-01-25T05:03:52.075Z,0
2017-01-25T05:05:01.031Z,0
2017-01-25T05:06:10.032Z,0
2017-01-25T05:07:18.985Z,0
2017-01-25T05:08:27.938Z,0
2017-01-25T05:09:36.887Z,0
2017-01-25T05:10:45.932Z,0
2017-01-25T05:11:54.888Z,0
2017-01-25T05:13:03.997Z,0
2017-01-25T05:14:12.952Z,0
2017-01-25T05:15:21.906Z,0
2017-01-25T05:16:30.866Z,0
2017-01-25T05:17:39.818Z,0
2017-01-25T05:18:48.768Z,0
2017-01-25T05:19:57.722Z,0
2017-01-25T05:21:06.675Z,0
2017-01-25T05:22:15.635Z,0
2017-01-25T05:23:24.597Z,0
2017-01-25T05:24:33.553Z,0
2017-01-25T05:25:42.511Z,0
2017-01-25T05:26:51.463Z,0
2017-01-25T05:28:00.424Z,0
2017-01-25T05:29:09.381Z,0
2017-01-25T05:30:18.335Z,0
2017-01-25T05:31:27.290Z,0
2017-01-25T05:32:36.243Z,0
2017-01-25T05:33:45.196Z,0
2017-01-25T05:34:54.152Z,0
2017-01-25T05:36:03.289Z,0
2017-01-25T05:37:12.329Z,0
2017-01-25T05:38:21.283Z,0
2017-01-25T05:39:30.329Z,0
2017-01-25T05:40:39.286Z,0
2017-01-25T05:41:48.244Z,0
2017-01-25T05:42:57.278Z,0
2017-01-25T05:44:06.322Z,0
2017-01-25T05:45:15.276Z,0
2017-01-25T05:46:24.231Z,0
2017-01-25T05:47:33.274Z,0
2017-01-25T05:48:42.217Z,0
2017-01-25T05:49:51.172Z,0
2017-01-25T05:51:00.130Z,0
2017-01-25T05:52:09.203Z,0
2017-01-25T05:53:18.240Z,0
2017-01-25T05:54:27.291Z,0
2017-01-25T05:55:36.244Z,0
2017-01-25T05:56:45.210Z,0
2017-01-25T05:57:54.164Z,0
2017-01-25T05:59:03.125Z,0
2017-01-25T06:00:12.083Z,0
2017-01-25T06:01:21.039Z,0
2017-01-25T06:02:30.000Z,0
2017-01-25T06:03:38.959Z,0
2017-01-25T06:04:47.909Z,0
2017-01-25T06:05:56.863Z,0
2017-01-25T06:07:05.814Z,0
2017-01-25T06:08:14.764Z,0
2017-01-25T06:09:23.728Z,0
2017-01-25T06:10:32.680Z,0
2017-01-25T06:11:41.671Z,0
2017-01-25T06:12:50.650Z,0
2017-01-25T06:13:59.612Z,0
2017-01-25T06:15:08.581Z,0
2017-01-25T06:16:17.534Z,0
2017-01-25T06:17:26.491Z,0
2017-01-25T06:18:35.449Z,0
2017-01-25T06:19:44.399Z,0
2017-01-25T06:20:53.349Z,0
2017-01-25T06:22:02.393Z,0
2017-01-25T06:23:11.344Z,0
2017-01-25T06:24:20.299Z,0
2017-01-25T06:25:29.258Z,0
2017-01-25T06:26:38.209Z,0
2017-01-25T06:27:47.250Z,0
2017-01-25T06:28:56.201Z,0
2017-01-25T06:30:05.156Z,0
2017-01-25T06:31:14.113Z,0
2017-01-25T06:32:23.070Z,4
2017-01-25T06:33:32.022Z,0
2017-01-25T06:34:40.971Z,4
2017-01-25T06:35:49.925Z,4
2017-01-25T06:36:58.891Z,4
2017-01-25T06:38:07.848Z,4
2017-01-25T06:39:16.802Z,4
2017-01-25T06:40:25.760Z,4
2017-01-25T06:41:34.709Z,4
2017-01-25T06:42:43.664Z,8
2017-01-25T06:43:52.624Z,8
2017-01-25T06:45:01.578Z,8
2017-01-25T06:46:10.533Z,12
2017-01-25T06:47:19.483Z,12
2017-01-25T06:48:28.436Z,12
2017-01-25T06:49:37.413Z,16
2017-01-25T06:50:46.461Z,16
2017-01-25T06:51:55.408Z,20
2017-01-25T06:53:04.358Z,20
2017-01-25T06:54:13.312Z,20
2017-01-25T06:55:22.266Z,24
2017-01-25T06:56:31.217Z,28
2017-01-25T06:57:40.167Z,24
2017-01-25T06:58:49.133Z,28
2017-01-25T06:59:58.090Z,32
2017-01-25T07:01:07.045Z,36
2017-01-25T07:02:16.009Z,40
2017-01-25T07:03:24.959Z,40
2017-01-25T07:04:33.911Z,44
2017-01-25T07:05:42.869Z,52
2017-01-25T07:06:51.825Z,56
2017-01-25T07:08:00.830Z,60
2017-01-25T07:09:09.780Z,64
2017-01-25T07:10:18.735Z,60
2017-01-25T07:11:27.767Z,72
2017-01-25T07:12:36.719Z,72
2017-01-25T07:13:45.669Z,72
2017-01-25T07:14:54.625Z,76
2017-01-25T07:16:03.576Z,76
2017-01-25T07:17:12.529Z,76
2017-01-25T07:18:21.481Z,76
2017-01-25T07:19:30.433Z,84
2017-01-25T07:20:39.387Z,100
2017-01-25T07:21:48.337Z,112
2017-01-25T07:22:57.284Z,108
2017-01-25T07:24:06.331Z,104
2017-01-25T07:25:15.298Z,104
2017-01-25T07:26:24.251Z,108
2017-01-25T07:27:33.213Z,124
2017-01-25T07:28:42.165Z,128
2017-01-25T07:29:51.132Z,124
2017-01-25T07:31:00.084Z,132
2017-01-25T07:32:09.037Z,124
2017-01-25T07:33:17.986Z,124
2017-01-25T07:34:26.939Z,140
2017-01-25T07:35:35.892Z,156
2017-01-25T07:36:44.845Z,164
2017-01-25T07:37:53.804Z,172
2017-01-25T07:39:02.754Z,184
2017-01-25T07:40:11.712Z,204
2017-01-25T07:41:20.665Z,212
2017-01-25T07:42:29.623Z,200
2017-01-25T07:43:38.578Z,196
2017-01-25T07:44:47.538Z,168
2017-01-25T07:45:56.488Z,164
2017-01-25T07:47:05.447Z,180
2017-01-25T07:48:14.399Z,180
2017-01-25T07:49:23.349Z,208
2017-01-25T07:50:32.303Z,208
2017-01-25T07:51:41.251Z,200
2017-01-25T07:52:50.209Z,220
2017-01-25T07:53:59.171Z,220
2017-01-25T07:55:08.121Z,240
2017-01-25T07:56:17.083Z,236
2017-01-25T07:57:26.038Z,212
2017-01-25T07:58:35.007Z,228
2017-01-25T07:59:43.958Z,260
2017-01-25T08:00:52.912Z,256
2017-01-25T08:02:01.863Z,264
2017-01-25T08:03:10.815Z,272
2017-01-25T08:04:19.765Z,272
2017-01-25T08:05:28.719Z,288
2017-01-25T08:06:37.668Z,288
2017-01-25T08:07:46.621Z,336
2017-01-25T08:08:55.574Z,356
2017-01-25T08:10:04.524Z,364
2017-01-25T08:11:13.480Z,376
2017-01-25T08:12:22.430Z,408
2017-01-25T08:13:31.387Z,436
2017-01-25T08:14:40.340Z,428
2017-01-25T08:15:49.383Z,412
2017-01-25T08:16:58.331Z,404
2017-01-25T08:18:07.286Z,420
2017-01-25T08:19:16.245Z,420
2017-01-25T08:20:25.198Z,444
2017-01-25T08:21:34.179Z,452
2017-01-25T08:22:43.136Z,456
2017-01-25T08:23:52.084Z,420
2017-01-25T08:25:01.038Z,428
2017-01-25T08:26:09.995Z,452
2017-01-25T08:27:18.947Z,472
2017-01-25T08:28:27.909Z,460
2017-01-25T08:29:36.863Z,444
2017-01-25T08:30:45.823Z,440
2017-01-25T08:31:54.777Z,468
2017-01-25T08:33:03.731Z,492
2017-01-25T08:34:12.702Z,536
2017-01-25T08:35:21.691Z,584
2017-01-25T08:36:30.649Z,528
2017-01-25T08:37:39.694Z,524
2017-01-25T08:38:48.735Z,516
2017-01-25T08:39:57.703Z,524
2017-01-25T08:41:06.662Z,512
2017-01-25T08:42:15.612Z,516
2017-01-25T08:43:24.568Z,552
2017-01-25T08:44:33.533Z,568
2017-01-25T08:45:42.487Z,596
2017-01-25T08:46:51.442Z,568
2017-01-25T08:48:00.390Z,576
2017-01-25T08:49:09.349Z,604
2017-01-25T08:50:18.636Z,604
2017-01-25T08:51:27.596Z,604
2017-01-25T08:52:36.551Z,560
2017-01-25T08:53:45.505Z,532
2017-01-25T08:54:54.463Z,568
2017-01-25T08:56:03.423Z,588
2017-01-25T08:57:12.846Z,672
2017-01-25T08:58:21.963Z,708
2017-01-25T08:59:30.925Z,592
2017-01-25T09:00:39.945Z,560
2017-01-25T09:01:48.902Z,556
2017-01-25T09:02:57.875Z,588
2017-01-25T09:04:06.839Z,628
2017-01-25T09:05:15.822Z,652
2017-01-25T09:06:24.832Z,704
2017-01-25T09:07:33.870Z,740
2017-01-25T09:08:42.930Z,724
2017-01-25T09:09:51.888Z,720
2017-01-25T09:11:00.846Z,740
2017-01-25T09:12:09.915Z,768
2017-01-25T09:13:18.867Z,812
2017-01-25T09:14:27.823Z,780
2017-01-25T09:15:36.867Z,792
2017-01-25T09:16:45.819Z,800
2017-01-25T09:17:54.779Z,784
2017-01-25T09:19:03.735Z,788
2017-01-25T09:20:15.654Z,868
2017-01-25T09:21:26.776Z,896
2017-01-25T09:22:37.759Z,820
2017-01-25T09:23:47.154Z,728
2017-01-25T09:24:57.984Z,748
2017-01-25T09:26:09.994Z,840
2017-01-25T09:27:20.442Z,836
2017-01-25T09:28:31.048Z,796
2017-01-25T09:29:41.308Z,804
2017-01-25T09:30:52.357Z,852
2017-01-25T09:32:03.724Z,860
2017-01-25T09:33:14.518Z,900
2017-01-25T09:34:25.143Z,880
2017-01-25T09:35:36.438Z,880
2017-01-25T09:36:47.207Z,896
2017-01-25T09:37:57.359Z,872
2017-01-25T09:39:08.481Z,884
2017-01-25T09:40:19.389Z,900
2017-01-25T09:41:29.654Z,908
2017-01-25T09:42:40.571Z,900
2017-01-25T09:43:51.036Z,876
2017-01-25T09:45:01.544Z,864
2017-01-25T09:46:11.260Z,908
2017-01-25T09:47:21.335Z,892
2017-01-25T09:48:32.129Z,896
2017-01-25T09:49:42.066Z,868
2017-01-25T09:50:53.267Z,896
2017-01-25T09:52:04.290Z,964
2017-01-25T09:53:15.621Z,1004
2017-01-25T09:54:26.505Z,1004
2017-01-25T09:55:36.785Z,1004
2017-01-25T09:56:47.071Z,960
2017-01-25T09:57:57.681Z,1012
2017-01-25T09:59:08.046Z,1076
2017-01-25T10:00:18.654Z,1068
2017-01-25T10:01:30.261Z,1068
2017-01-25T10:02:40.905Z,964
2017-01-25T10:03:51.254Z,944
2017-01-25T10:05:00.731Z,964
2017-01-25T10:06:10.338Z,1028
2017-01-25T10:07:20.984Z,1004
2017-01-25T10:08:31.168Z,956
2017-01-25T10:09:40.452Z,992
2017-01-25T10:10:50.291Z,1020
2017-01-25T10:11:59.850Z,1012
2017-01-25T10:13:10.270Z,1008
2017-01-25T10:14:20.238Z,1004
2017-01-25T10:15:30.680Z,1004
2017-01-25T10:16:39.893Z,1092
2017-01-25T10:17:48.854Z,1164
2017-01-25T10:18:58.434Z,1072
2017-01-25T10:20:07.403Z,1056
2017-01-25T10:21:16.360Z,1092
2017-01-25T10:22:25.400Z,1108
2017-01-25T10:23:34.356Z,1104
2017-01-25T10:24:43.311Z,1060
2017-01-25T10:25:52.265Z,1028
2017-01-25T10:27:01.232Z,1148
2017-01-25T10:28:10.193Z,1284
2017-01-25T10:29:19.150Z,1200
2017-01-25T10:30:28.194Z,1136
2017-01-25T10:31:37.148Z,1136
2017-01-25T10:32:46.105Z,1176
2017-01-25T10:33:55.061Z,1188
2017-01-25T10:35:04.014Z,1180
2017-01-25T10:36:12.966Z,1140
2017-01-25T10:37:22.003Z,1192
2017-01-25T10:38:30.956Z,1132
2017-01-25T10:39:39.941Z,1108
2017-01-25T10:40:48.893Z,1144
2017-01-25T10:41:57.848Z,1136
2017-01-25T10:43:07.221Z,1144
2017-01-25T10:44:16.180Z,1108
2017-01-25T10:45:25.225Z,1140
2017-01-25T10:46:34.524Z,1168
2017-01-25T10:47:44.584Z,1108
2017-01-25T10:48:54.258Z,1112
2017-01-25T10:50:04.811Z,1140
2017-01-25T10:51:14.449Z,1148
2017-01-25T10:52:24.108Z,1156
2017-01-25T10:53:33.352Z,1080
2017-01-25T10:54:43.202Z,1104
2017-01-25T10:55:52.591Z,1236
2017-01-25T10:57:02.389Z,1236
2017-01-25T10:58:11.476Z,1212
2017-01-25T10:59:22.217Z,1200
2017-01-25T11:00:31.574Z,1200
2017-01-25T11:01:40.540Z,1136
2017-01-25T11:02:49.519Z,1100
2017-01-25T11:03:58.475Z,1120
2017-01-25T11:05:07.886Z,1156
2017-01-25T11:06:16.863Z,1136
2017-01-25T11:07:25.827Z,1096
2017-01-25T11:08:34.779Z,1100
2017-01-25T11:09:43.737Z,1132
2017-01-25T11:10:52.686Z,1188
2017-01-25T11:12:01.643Z,1196
2017-01-25T11:13:10.601Z,1204
2017-01-25T11:14:19.644Z,1248
2017-01-25T11:15:28.596Z,1268
2017-01-25T11:16:37.548Z,1284
2017-01-25T11:17:46.506Z,1356
2017-01-25T11:18:55.461Z,1356
2017-01-25T11:20:04.958Z,1384
2017-01-25T11:21:14.935Z,1368
2017-01-25T11:22:23.891Z,1316
2017-01-25T11:23:33.150Z,1272
2017-01-25T11:24:42.782Z,1208
2017-01-25T11:25:52.007Z,1284
2017-01-25T11:27:02.207Z,1272
2017-01-25T11:28:11.773Z,1196
2017-01-25T11:29:25.578Z,1172
2017-01-25T11:30:36.292Z,1188
2017-01-25T11:31:45.327Z,1232
2017-01-25T11:32:54.649Z,1228
2017-01-25T11:34:04.146Z,1264
2017-01-25T11:35:13.282Z,1264
2017-01-25T11:36:22.396Z,1260
2017-01-25T11:37:31.489Z,1260
2017-01-25T11:38:41.036Z,1376
2017-01-25T11:39:50.267Z,1388
2017-01-25T11:40:59.222Z,1284
2017-01-25T11:42:08.917Z,1264
2017-01-25T11:43:18.811Z,1248
2017-01-25T11:44:28.267Z,1260
2017-01-25T11:45:38.302Z,1268
2017-01-25T11:46:47.787Z,1296
2017-01-25T11:47:56.744Z,1296
2017-01-25T11:49:05.702Z,1256
2017-01-25T11:50:15.258Z,1244
2017-01-25T11:51:25.394Z,1212
2017-01-25T11:52:35.454Z,1196
2017-01-25T11:53:45.089Z,1228
2017-01-25T11:54:54.966Z,1220
2017-01-25T11:56:03.921Z,1140
2017-01-25T11:57:12.872Z,1172
2017-01-25T11:58:21.851Z,1228
2017-01-25T11:59:30.805Z,1208
2017-01-25T12:00:39.760Z,1184
2017-01-25T12:01:48.713Z,1220
2017-01-25T12:02:57.669Z,1224
2017-01-25T12:04:06.625Z,1232
2017-01-25T12:05:15.587Z,1252
2017-01-25T12:06:24.543Z,1260
2017-01-25T12:07:33.497Z,1188
2017-01-25T12:08:42.449Z,1220
2017-01-25T12:09:51.405Z,1216
2017-01-25T12:11:00.359Z,1256
2017-01-25T12:12:09.316Z,1196
2017-01-25T12:13:18.270Z,1172
2017-01-25T12:14:27.226Z,1200
2017-01-25T12:15:36.180Z,1184
2017-01-25T12:16:45.142Z,1160
2017-01-25T12:17:54.096Z,1168
2017-01-25T12:19:03.075Z,1144
2017-01-25T12:20:12.035Z,1032
2017-01-25T12:21:20.987Z,1084
2017-01-25T12:22:29.934Z,1176
2017-01-25T12:23:38.887Z,1284
2017-01-25T12:24:47.849Z,1232
2017-01-25T12:25:56.806Z,1268
2017-01-25T12:27:05.774Z,1300
2017-01-25T12:28:14.725Z,1224
2017-01-25T12:29:23.678Z,1212
2017-01-25T12:30:32.637Z,1268
2017-01-25T12:31:41.586Z,1236
2017-01-25T12:32:50.539Z,1212
2017-01-25T12:33:59.501Z,1228
2017-01-25T12:35:08.460Z,1228
2017-01-25T12:36:17.429Z,1272
2017-01-25T12:37:26.395Z,1272
2017-01-25T12:38:35.354Z,1252
2017-01-25T12:39:44.308Z,1276
2017-01-25T12:40:53.275Z,1200
2017-01-25T12:42:02.235Z,1164
2017-01-25T12:43:11.193Z,1108
2017-01-25T12:44:20.149Z,1148
2017-01-25T12:45:29.101Z,1116
2017-01-25T12:46:38.061Z,1068
2017-01-25T12:47:47.022Z,1088
2017-01-25T12:48:55.983Z,1156
2017-01-25T12:50:04.946Z,1176
2017-01-25T12:51:13.913Z,1208
2017-01-25T12:52:22.866Z,1180
2017-01-25T12:53:31.826Z,1104
2017-01-25T12:54:40.869Z,1060
2017-01-25T12:55:49.823Z,1000
2017-01-25T12:56:58.783Z,984
2017-01-25T12:58:07.741Z,1052
2017-01-25T12:59:16.700Z,1132
2017-01-25T13:00:26.386Z,1156
2017-01-25T13:01:36.058Z,1144
2017-01-25T13:02:46.077Z,1100
2017-01-25T13:03:56.341Z,1056
2017-01-25T13:05:05.726Z,1124
2017-01-25T13:06:16.379Z,1124
2017-01-25T13:07:25.333Z,1100
2017-01-25T13:08:34.286Z,1140
2017-01-25T13:09:43.513Z,1060
2017-01-25T13:10:53.194Z,996
2017-01-25T13:12:03.027Z,984
2017-01-25T13:13:12.694Z,900
2017-01-25T13:14:21.659Z,880
2017-01-25T13:15:30.615Z,948
2017-01-25T13:16:39.670Z,1000
2017-01-25T13:17:49.533Z,1008
2017-01-25T13:18:58.514Z,1024
2017-01-25T13:20:07.533Z,1072
2017-01-25T13:21:16.493Z,1032
2017-01-25T13:22:25.505Z,960
2017-01-25T13:23:34.461Z,908
2017-01-25T13:24:43.417Z,908
2017-01-25T13:25:52.625Z,944
2017-01-25T13:27:01.752Z,948
2017-01-25T13:28:10.716Z,944
2017-01-25T13:29:19.803Z,928
2017-01-25T13:30:28.887Z,896
2017-01-25T13:31:37.846Z,896
2017-01-25T13:32:47.410Z,944
2017-01-25T13:33:56.368Z,920
2017-01-25T13:35:05.320Z,1000
2017-01-25T13:36:14.279Z,1008
2017-01-25T13:37:23.231Z,988
2017-01-25T13:38:32.185Z,976
2017-01-25T13:39:41.758Z,960
2017-01-25T13:40:50.710Z,916
2017-01-25T13:41:59.673Z,884
2017-01-25T13:43:08.633Z,872
2017-01-25T13:44:17.587Z,892
2017-01-25T13:45:26.665Z,820
2017-01-25T13:46:36.288Z,800
2017-01-25T13:47:45.246Z,852
2017-01-25T13:48:54.235Z,940
2017-01-25T13:50:03.187Z,948
2017-01-25T13:51:12.147Z,932
2017-01-25T13:52:21.132Z,880
2017-01-25T13:53:30.174Z,816
2017-01-25T13:54:39.495Z,916
2017-01-25T13:55:48.450Z,884
2017-01-25T13:56:57.726Z,844
2017-01-25T13:58:06.689Z,844
2017-01-25T13:59:15.731Z,892
2017-01-25T14:00:25.158Z,856
2017-01-25T14:01:34.635Z,872
2017-01-25T14:02:44.140Z,876
2017-01-25T14:03:53.417Z,868
2017-01-25T14:05:02.605Z,840
2017-01-25T14:06:11.761Z,852
2017-01-25T14:07:20.879Z,788
2017-01-25T14:08:30.012Z,736
2017-01-25T14:09:39.347Z,756
2017-01-25T14:10:48.875Z,752
2017-01-25T14:11:58.219Z,760
2017-01-25T14:13:07.466Z,724
2017-01-25T14:14:16.899Z,724
2017-01-25T14:15:26.462Z,692
2017-01-25T14:16:35.953Z,676
2017-01-25T14:17:45.445Z,696
2017-01-25T14:18:54.663Z,684
2017-01-25T14:20:03.953Z,628
2017-01-25T14:21:13.173Z,584
2017-01-25T14:22:22.531Z,564
2017-01-25T14:23:31.857Z,576
2017-01-25T14:24:41.903Z,544
2017-01-25T14:25:51.683Z,512
2017-01-25T14:27:02.295Z,464
2017-01-25T14:28:12.781Z,436
2017-01-25T14:29:22.074Z,428
2017-01-25T14:30:32.101Z,444
2017-01-25T14:31:41.111Z,444
2017-01-25T14:32:50.106Z,436
2017-01-25T14:33:59.063Z,432
2017-01-25T14:35:08.035Z,428
2017-01-25T14:36:16.991Z,408
2017-01-25T14:37:25.957Z,404
2017-01-25T14:38:35.003Z,408
2017-01-25T14:39:43.955Z,388
2017-01-25T14:40:52.912Z,384
2017-01-25T14:42:01.873Z,388
2017-01-25T14:43:10.948Z,372
2017-01-25T14:44:19.907Z,368
2017-01-25T14:45:28.864Z,376
2017-01-25T14:46:37.827Z,388
2017-01-25T14:47:46.857Z,372
2017-01-25T14:48:55.816Z,356
2017-01-25T14:50:04.786Z,340
2017-01-25T14:51:13.741Z,308
2017-01-25T14:52:22.698Z,292
2017-01-25T14:53:31.648Z,272
2017-01-25T14:54:40.608Z,248
2017-01-25T14:55:49.569Z,256
2017-01-25T14:56:58.526Z,268
2017-01-25T14:58:07.571Z,268
2017-01-25T14:59:16.532Z,272
2017-01-25T15:00:25.489Z,272
2017-01-25T15:01:34.444Z,260
2017-01-25T15:02:44.154Z,248
2017-01-25T15:03:53.217Z,244
2017-01-25T15:05:02.559Z,248
2017-01-25T15:06:11.514Z,244
2017-01-25T15:07:20.467Z,236
2017-01-25T15:08:29.601Z,220
2017-01-25T15:09:38.765Z,200
2017-01-25T15:10:49.444Z,184
2017-01-25T15:11:58.775Z,176
2017-01-25T15:13:09.618Z,164
2017-01-25T15:14:18.695Z,160
2017-01-25T15:15:27.738Z,160
2017-01-25T15:16:36.697Z,132
2017-01-25T15:17:45.652Z,128
2017-01-25T15:18:54.610Z,116
2017-01-25T15:20:03.568Z,108
2017-01-25T15:21:12.525Z,104
2017-01-25T15:22:21.477Z,104
2017-01-25T15:23:31.515Z,96
2017-01-25T15:24:41.943Z,88
2017-01-25T15:25:52.371Z,84
2017-01-25T15:27:03.238Z,76
2017-01-25T15:28:13.886Z,76
2017-01-25T15:29:25.369Z,72
2017-01-25T15:30:36.297Z,68
2017-01-25T15:31:46.012Z,68
2017-01-25T15:32:55.107Z,60
2017-01-25T15:34:04.070Z,56
2017-01-25T15:35:13.034Z,48
2017-01-25T15:36:21.989Z,48
2017-01-25T15:37:30.994Z,48
2017-01-25T15:38:39.946Z,40
2017-01-25T15:39:48.901Z,40
2017-01-25T15:40:57.859Z,32
2017-01-25T15:42:06.818Z,32
2017-01-25T15:43:15.775Z,28
2017-01-25T15:44:24.821Z,28
2017-01-25T15:45:34.204Z,24
2017-01-25T15:46:44.379Z,24
2017-01-25T15:47:56.320Z,20
2017-01-25T15:49:06.422Z,20
2017-01-25T15:50:16.384Z,16
2017-01-25T15:51:25.605Z,12
2017-01-25T15:52:35.598Z,12
2017-01-25T15:53:46.783Z,8
2017-01-25T15:54:58.474Z,8
2017-01-25T15:56:08.468Z,8
2017-01-25T15:57:17.427Z,4
2017-01-25T15:58:26.382Z,8
2017-01-25T15:59:36.425Z,4
2017-01-25T16:00:45.541Z,4
2017-01-25T16:01:54.502Z,4
2017-01-25T16:03:03.453Z,0
2017-01-25T16:04:12.430Z,4
2017-01-25T16:05:21.386Z,4
2017-01-25T16:06:30.342Z,0
2017-01-25T16:07:39.299Z,0
2017-01-25T16:08:48.260Z,0
2017-01-25T16:09:57.217Z,4
2017-01-25T16:11:06.258Z,4
2017-01-25T16:12:15.215Z,0
2017-01-25T16:13:24.254Z,0
2017-01-25T16:14:33.207Z,0
2017-01-25T16:15:42.170Z,0
2017-01-25T16:16:51.128Z,0
2017-01-25T16:18:00.092Z,0